sensor_id;sensor_type;location;lat;lon;timestamp;pressure;altitude;pressure_sealevel;temperature;humidity
43298;BME280;28892;55.640;37.532;2024-01-25T00:01:11;97531.03;;;1.21;71.33
43298;BME280;28892;55.640;37.532;2024-01-25T00:03:44;97529.47;;;0.52;72.76
43298;BME280;28892;55.640;37.532;2024-01-25T00:06:10;97514.97;;;0.49;73.30
43298;BME280;28892;55.640;37.532;2024-01-25T00:08:44;97518.13;;;0.86;72.91
43298;BME280;28892;55.640;37.532;2024-01-25T00:11:16;97514.03;;;0.92;72.40
43298;BME280;28892;55.640;37.532;2024-01-25T00:13:42;97524.91;;;0.54;73.21
43298;BME280;28892;55.640;37.532;2024-01-25T00:16:10;97515.03;;;0.91;72.74
43298;BME280;28892;55.640;37.532;2024-01-25T00:18:39;97522.66;;;0.59;72.90
43298;BME280;28892;55.640;37.532;2024-01-25T00:21:05;97513.94;;;0.34;73.52
43298;BME280;28892;55.640;37.532;2024-01-25T00:23:32;97502.75;;;0.58;74.01
43298;BME280;28892;55.640;37.532;2024-01-25T00:25:58;97501.22;;;0.31;73.86
43298;BME280;28892;55.640;37.532;2024-01-25T00:28:27;97498.34;;;0.50;74.80
43298;BME280;28892;55.640;37.532;2024-01-25T00:31:00;97494.31;;;0.81;73.40
43298;BME280;28892;55.640;37.532;2024-01-25T00:33:27;97499.38;;;0.74;73.69
43298;BME280;28892;55.640;37.532;2024-01-25T00:35:56;97484.50;;;0.58;73.75
43298;BME280;28892;55.640;37.532;2024-01-25T00:38:22;97486.09;;;0.34;74.16
43298;BME280;28892;55.640;37.532;2024-01-25T00:40:47;97476.34;;;0.45;74.29
43298;BME280;28892;55.640;37.532;2024-01-25T00:43:13;97486.94;;;0.51;74.20
43298;BME280;28892;55.640;37.532;2024-01-25T00:45:39;97476.56;;;0.17;75.12
43298;BME280;28892;55.640;37.532;2024-01-25T00:48:05;97484.16;;;0.53;74.79
43298;BME280;28892;55.640;37.532;2024-01-25T00:50:31;97473.72;;;0.45;74.34
43298;BME280;28892;55.640;37.532;2024-01-25T00:52:59;97472.78;;;0.87;74.52
43298;BME280;28892;55.640;37.532;2024-01-25T00:55:25;97471.63;;;0.65;73.95
43298;BME280;28892;55.640;37.532;2024-01-25T00:57:59;97471.28;;;0.68;73.99
43298;BME280;28892;55.640;37.532;2024-01-25T01:00:27;97465.25;;;0.59;73.76
43298;BME280;28892;55.640;37.532;2024-01-25T01:02:53;97459.56;;;0.72;73.17
43298;BME280;28892;55.640;37.532;2024-01-25T01:05:19;97446.63;;;0.37;73.85
43298;BME280;28892;55.640;37.532;2024-01-25T01:07:49;97442.41;;;0.45;73.72
43298;BME280;28892;55.640;37.532;2024-01-25T01:10:18;97443.03;;;0.22;74.11
43298;BME280;28892;55.640;37.532;2024-01-25T01:12:46;97441.28;;;0.64;74.47
43298;BME280;28892;55.640;37.532;2024-01-25T01:15:23;97445.00;;;0.36;73.83
43298;BME280;28892;55.640;37.532;2024-01-25T01:38:14;97426.53;;;0.13;73.38
43298;BME280;28892;55.640;37.532;2024-01-25T01:40:44;97415.13;;;0.06;73.72
43298;BME280;28892;55.640;37.532;2024-01-25T01:43:18;97423.00;;;0.89;72.33
43298;BME280;28892;55.640;37.532;2024-01-25T01:45:48;97404.56;;;0.40;72.93
43298;BME280;28892;55.640;37.532;2024-01-25T01:48:14;97403.75;;;0.57;72.68
43298;BME280;28892;55.640;37.532;2024-01-25T01:50:41;97407.81;;;0.43;72.69
43298;BME280;28892;55.640;37.532;2024-01-25T01:53:10;97404.91;;;0.37;72.59
43298;BME280;28892;55.640;37.532;2024-01-25T01:55:38;97423.28;;;0.11;73.19
43298;BME280;28892;55.640;37.532;2024-01-25T01:58:07;97396.31;;;-0.15;74.19
43298;BME280;28892;55.640;37.532;2024-01-25T02:00:34;97380.78;;;0.52;73.66
43298;BME280;28892;55.640;37.532;2024-01-25T02:02:59;97404.28;;;0.44;72.55
43298;BME280;28892;55.640;37.532;2024-01-25T02:05:31;97400.13;;;0.16;73.32
43298;BME280;28892;55.640;37.532;2024-01-25T02:07:57;97396.09;;;0.30;73.13
43298;BME280;28892;55.640;37.532;2024-01-25T02:10:22;97389.44;;;0.52;72.46
43298;BME280;28892;55.640;37.532;2024-01-25T02:12:48;97415.34;;;0.46;72.78
43298;BME280;28892;55.640;37.532;2024-01-25T02:15:14;97389.75;;;0.41;73.92
43298;BME280;28892;55.640;37.532;2024-01-25T02:17:39;97399.16;;;0.25;72.58
43298;BME280;28892;55.640;37.532;2024-01-25T02:20:06;97419.13;;;-0.17;73.92
43298;BME280;28892;55.640;37.532;2024-01-25T02:22:35;97394.66;;;-0.24;74.88
43298;BME280;28892;55.640;37.532;2024-01-25T02:25:12;97404.69;;;0.14;75.36
43298;BME280;28892;55.640;37.532;2024-01-25T02:27:38;97392.66;;;0.21;77.00
43298;BME280;28892;55.640;37.532;2024-01-25T02:30:05;97399.34;;;0.16;76.58
43298;BME280;28892;55.640;37.532;2024-01-25T02:32:34;97395.22;;;0.05;77.25
43298;BME280;28892;55.640;37.532;2024-01-25T02:34:59;97391.97;;;0.03;77.72
43298;BME280;28892;55.640;37.532;2024-01-25T02:37:28;97396.56;;;0.17;78.18
43298;BME280;28892;55.640;37.532;2024-01-25T02:39:54;97391.50;;;0.07;78.23
43298;BME280;28892;55.640;37.532;2024-01-25T02:42:21;97396.09;;;0.30;77.77
43298;BME280;28892;55.640;37.532;2024-01-25T02:44:47;97388.59;;;0.27;78.18
43298;BME280;28892;55.640;37.532;2024-01-25T02:47:12;97391.03;;;0.37;79.63
43298;BME280;28892;55.640;37.532;2024-01-25T02:49:46;97373.75;;;0.36;77.98
43298;BME280;28892;55.640;37.532;2024-01-25T02:52:12;97388.09;;;0.23;77.64
43298;BME280;28892;55.640;37.532;2024-01-25T02:54:38;97384.03;;;0.29;77.59
43298;BME280;28892;55.640;37.532;2024-01-25T02:57:04;97375.69;;;0.09;76.76
43298;BME280;28892;55.640;37.532;2024-01-25T02:59:32;97374.06;;;0.16;77.22
43298;BME280;28892;55.640;37.532;2024-01-25T03:02:01;97357.94;;;0.12;75.42
43298;BME280;28892;55.640;37.532;2024-01-25T03:04:31;97370.66;;;0.16;75.33
43298;BME280;28892;55.640;37.532;2024-01-25T03:06:56;97364.41;;;-0.17;75.96
43298;BME280;28892;55.640;37.532;2024-01-25T03:09:22;97367.69;;;-0.06;76.66
43298;BME280;28892;55.640;37.532;2024-01-25T03:11:49;97354.19;;;0.07;76.00
43298;BME280;28892;55.640;37.532;2024-01-25T03:18:24;97355.34;;;0.12;75.18
43298;BME280;28892;55.640;37.532;2024-01-25T03:21:24;97361.53;;;0.36;75.33
43298;BME280;28892;55.640;37.532;2024-01-25T03:23:55;97358.28;;;0.34;75.29
43298;BME280;28892;55.640;37.532;2024-01-25T03:26:55;97345.38;;;0.66;73.93
43298;BME280;28892;55.640;37.532;2024-01-25T03:29:29;97354.69;;;0.77;74.17
43298;BME280;28892;55.640;37.532;2024-01-25T03:32:54;97350.44;;;0.43;73.08
43298;BME280;28892;55.640;37.532;2024-01-25T03:35:40;97349.00;;;0.32;74.01
43298;BME280;28892;55.640;37.532;2024-01-25T03:38:06;97346.50;;;-0.03;74.44
43298;BME280;28892;55.640;37.532;2024-01-25T03:40:32;97341.97;;;0.32;74.21
43298;BME280;28892;55.640;37.532;2024-01-25T03:42:57;97336.91;;;0.22;73.45
43298;BME280;28892;55.640;37.532;2024-01-25T03:45:23;97342.63;;;0.34;73.76
43298;BME280;28892;55.640;37.532;2024-01-25T03:47:49;97327.47;;;0.30;72.57
43298;BME280;28892;55.640;37.532;2024-01-25T03:50:22;97329.09;;;0.14;73.29
43298;BME280;28892;55.640;37.532;2024-01-25T03:52:52;97332.03;;;0.19;72.95
43298;BME280;28892;55.640;37.532;2024-01-25T03:55:22;97325.66;;;0.30;73.52
43298;BME280;28892;55.640;37.532;2024-01-25T03:57:47;97334.78;;;0.09;73.08
43298;BME280;28892;55.640;37.532;2024-01-25T04:00:13;97326.47;;;-0.03;73.94
43298;BME280;28892;55.640;37.532;2024-01-25T04:02:59;97317.00;;;0.05;73.37
43298;BME280;28892;55.640;37.532;2024-01-25T04:05:27;97317.59;;;-0.43;73.76
43298;BME280;28892;55.640;37.532;2024-01-25T04:07:53;97325.94;;;-0.31;73.92
43298;BME280;28892;55.640;37.532;2024-01-25T04:10:19;97321.41;;;-0.04;75.61
43298;BME280;28892;55.640;37.532;2024-01-25T04:12:45;97327.81;;;0.18;73.60
43298;BME280;28892;55.640;37.532;2024-01-25T04:15:10;97325.94;;;-0.23;73.96
43298;BME280;28892;55.640;37.532;2024-01-25T04:17:39;97313.47;;;0.06;73.54
43298;BME280;28892;55.640;37.532;2024-01-25T04:20:05;97324.97;;;-0.30;73.37
43298;BME280;28892;55.640;37.532;2024-01-25T04:22:35;97314.56;;;-0.05;73.75
43298;BME280;28892;55.640;37.532;2024-01-25T04:25:00;97320.25;;;-0.10;73.25
43298;BME280;28892;55.640;37.532;2024-01-25T04:27:30;97323.38;;;0.02;73.38
43298;BME280;28892;55.640;37.532;2024-01-25T04:29:56;97339.41;;;-0.44;73.14
43298;BME280;28892;55.640;37.532;2024-01-25T04:32:22;97322.88;;;-0.10;74.07
43298;BME280;28892;55.640;37.532;2024-01-25T04:34:50;97326.75;;;-0.22;73.71
43298;BME280;28892;55.640;37.532;2024-01-25T04:37:16;97321.19;;;-0.36;73.86
43298;BME280;28892;55.640;37.532;2024-01-25T04:39:50;97308.78;;;-0.50;73.51
43298;BME280;28892;55.640;37.532;2024-01-25T04:42:36;97337.78;;;-0.45;74.34
43298;BME280;28892;55.640;37.532;2024-01-25T04:45:02;97331.22;;;-0.58;74.50
43298;BME280;28892;55.640;37.532;2024-01-25T04:47:29;97322.94;;;-0.45;74.03
43298;BME280;28892;55.640;37.532;2024-01-25T04:49:56;97329.72;;;-0.09;73.53
43298;BME280;28892;55.640;37.532;2024-01-25T04:52:22;97338.34;;;-0.08;72.92
43298;BME280;28892;55.640;37.532;2024-01-25T04:54:47;97317.53;;;0.00;72.76
43298;BME280;28892;55.640;37.532;2024-01-25T04:57:13;97339.31;;;-0.18;73.13
43298;BME280;28892;55.640;37.532;2024-01-25T04:59:39;97335.38;;;-0.30;73.38
43298;BME280;28892;55.640;37.532;2024-01-25T05:02:05;97330.84;;;-0.20;73.04
43298;BME280;28892;55.640;37.532;2024-01-25T05:04:31;97309.19;;;0.05;72.36
43298;BME280;28892;55.640;37.532;2024-01-25T05:06:58;97318.00;;;-0.05;72.23
43298;BME280;28892;55.640;37.532;2024-01-25T05:09:25;97314.25;;;-0.02;71.98
43298;BME280;28892;55.640;37.532;2024-01-25T05:11:53;97317.31;;;-0.23;72.56
43298;BME280;28892;55.640;37.532;2024-01-25T05:14:26;97313.56;;;-0.12;72.64
43298;BME280;28892;55.640;37.532;2024-01-25T05:16:52;97311.34;;;0.01;71.38
43298;BME280;28892;55.640;37.532;2024-01-25T05:19:24;97322.06;;;0.31;71.43
43298;BME280;28892;55.640;37.532;2024-01-25T05:25:36;97325.31;;;-0.08;71.36
43298;BME280;28892;55.640;37.532;2024-01-25T05:28:03;97319.72;;;-0.38;71.79
43298;BME280;28892;55.640;37.532;2024-01-25T05:30:29;97330.28;;;-0.40;71.88
43298;BME280;28892;55.640;37.532;2024-01-25T05:32:55;97331.41;;;-0.51;72.19
43298;BME280;28892;55.640;37.532;2024-01-25T05:35:21;97323.91;;;-0.54;72.25
43298;BME280;28892;55.640;37.532;2024-01-25T05:37:47;97325.69;;;-0.54;73.04
43298;BME280;28892;55.640;37.532;2024-01-25T05:40:13;97339.00;;;-0.66;73.12
43298;BME280;28892;55.640;37.532;2024-01-25T05:42:40;97324.31;;;-0.75;73.86
43298;BME280;28892;55.640;37.532;2024-01-25T05:45:11;97296.41;;;-0.40;72.54
43298;BME280;28892;55.640;37.532;2024-01-25T05:47:38;97329.16;;;-0.89;72.58
43298;BME280;28892;55.640;37.532;2024-01-25T05:50:05;97319.84;;;-0.57;75.14
43298;BME280;28892;55.640;37.532;2024-01-25T05:55:25;97326.03;;;-0.92;73.15
43298;BME280;28892;55.640;37.532;2024-01-25T05:57:51;97309.72;;;-1.03;73.83
43298;BME280;28892;55.640;37.532;2024-01-25T06:00:23;97308.09;;;-0.69;73.19
43298;BME280;28892;55.640;37.532;2024-01-25T06:02:49;97313.97;;;-0.59;72.43
43298;BME280;28892;55.640;37.532;2024-01-25T06:05:16;97319.47;;;-0.70;72.92
43298;BME280;28892;55.640;37.532;2024-01-25T06:07:41;97302.31;;;-0.30;72.31
43298;BME280;28892;55.640;37.532;2024-01-25T06:10:08;97304.53;;;-0.51;72.12
43298;BME280;28892;55.640;37.532;2024-01-25T06:12:35;97306.41;;;-0.78;72.40
43298;BME280;28892;55.640;37.532;2024-01-25T06:15:00;97313.56;;;-0.80;72.87
43298;BME280;28892;55.640;37.532;2024-01-25T06:17:29;97303.25;;;-0.55;72.92
43298;BME280;28892;55.640;37.532;2024-01-25T06:19:54;97320.03;;;-0.33;71.66
43298;BME280;28892;55.640;37.532;2024-01-25T06:22:20;97310.31;;;-0.31;71.29
43298;BME280;28892;55.640;37.532;2024-01-25T06:24:46;97314.56;;;-0.13;70.83
43298;BME280;28892;55.640;37.532;2024-01-25T06:30:02;97311.91;;;-0.38;70.89
43298;BME280;28892;55.640;37.532;2024-01-25T06:32:29;97312.91;;;-0.31;71.17
43298;BME280;28892;55.640;37.532;2024-01-25T06:34:55;97311.28;;;-0.24;72.49
43298;BME280;28892;55.640;37.532;2024-01-25T06:37:21;97308.28;;;-0.54;71.74
43298;BME280;28892;55.640;37.532;2024-01-25T06:39:48;97293.69;;;-0.90;72.72
43298;BME280;28892;55.640;37.532;2024-01-25T06:42:15;97311.25;;;-0.83;72.88
43298;BME280;28892;55.640;37.532;2024-01-25T06:44:44;97321.06;;;-1.12;72.99
43298;BME280;28892;55.640;37.532;2024-01-25T06:47:10;97316.44;;;-0.49;73.10
43298;BME280;28892;55.640;37.532;2024-01-25T06:49:40;97298.41;;;-0.34;71.59
43298;BME280;28892;55.640;37.532;2024-01-25T06:52:06;97313.22;;;-0.34;71.95
43298;BME280;28892;55.640;37.532;2024-01-25T06:54:32;97320.22;;;-0.35;71.61
43298;BME280;28892;55.640;37.532;2024-01-25T06:56:57;97319.41;;;-0.35;71.26
43298;BME280;28892;55.640;37.532;2024-01-25T06:59:23;97325.16;;;-0.15;71.03
43298;BME280;28892;55.640;37.532;2024-01-25T07:01:50;97315.38;;;-0.13;70.99
43298;BME280;28892;55.640;37.532;2024-01-25T07:04:17;97313.41;;;-0.19;70.87
43298;BME280;28892;55.640;37.532;2024-01-25T07:06:43;97328.47;;;-0.48;71.53
43298;BME280;28892;55.640;37.532;2024-01-25T07:09:10;97318.47;;;-0.01;70.89
43298;BME280;28892;55.640;37.532;2024-01-25T07:11:37;97327.28;;;-0.62;70.92
43298;BME280;28892;55.640;37.532;2024-01-25T07:14:03;97324.91;;;-0.47;71.72
43298;BME280;28892;55.640;37.532;2024-01-25T07:16:31;97322.00;;;-0.35;71.08
43298;BME280;28892;55.640;37.532;2024-01-25T07:18:58;97319.47;;;-0.70;71.35
43298;BME280;28892;55.640;37.532;2024-01-25T07:21:24;97318.75;;;-0.37;71.17
43298;BME280;28892;55.640;37.532;2024-01-25T07:23:53;97319.09;;;-0.32;70.42
43298;BME280;28892;55.640;37.532;2024-01-25T07:26:20;97294.78;;;-0.41;71.06
43298;BME280;28892;55.640;37.532;2024-01-25T07:28:48;97305.72;;;-0.89;71.39
43298;BME280;28892;55.640;37.532;2024-01-25T07:31:15;97305.34;;;-0.59;71.49
43298;BME280;28892;55.640;37.532;2024-01-25T07:33:46;97307.56;;;-0.73;71.29
43298;BME280;28892;55.640;37.532;2024-01-25T07:36:20;97317.69;;;-0.61;71.09
43298;BME280;28892;55.640;37.532;2024-01-25T07:38:47;97312.59;;;-0.71;72.19
43298;BME280;28892;55.640;37.532;2024-01-25T07:41:20;97321.25;;;-0.71;71.64
43298;BME280;28892;55.640;37.532;2024-01-25T07:43:56;97316.22;;;-0.64;71.66
43298;BME280;28892;55.640;37.532;2024-01-25T07:46:28;97302.59;;;-0.92;71.92
43298;BME280;28892;55.640;37.532;2024-01-25T07:48:55;97316.66;;;-0.77;71.55
43298;BME280;28892;55.640;37.532;2024-01-25T07:51:22;97297.47;;;-0.76;71.34
43298;BME280;28892;55.640;37.532;2024-01-25T07:53:51;97321.84;;;-0.85;71.80
43298;BME280;28892;55.640;37.532;2024-01-25T07:56:18;97315.03;;;-0.78;73.23
43298;BME280;28892;55.640;37.532;2024-01-25T07:58:53;97318.88;;;-0.39;71.43
43298;BME280;28892;55.640;37.532;2024-01-25T08:01:40;97320.72;;;-0.31;70.71
43298;BME280;28892;55.640;37.532;2024-01-25T08:04:12;97322.81;;;-0.43;69.60
43298;BME280;28892;55.640;37.532;2024-01-25T08:06:37;97318.34;;;-0.59;70.91
43298;BME280;28892;55.640;37.532;2024-01-25T08:09:03;97309.31;;;-0.81;71.81
43298;BME280;28892;55.640;37.532;2024-01-25T08:11:29;97301.81;;;-1.19;71.86
43298;BME280;28892;55.640;37.532;2024-01-25T08:13:55;97314.78;;;-0.93;72.50
43298;BME280;28892;55.640;37.532;2024-01-25T08:16:22;97329.81;;;-0.87;72.12
43298;BME280;28892;55.640;37.532;2024-01-25T08:18:51;97323.34;;;-0.31;71.79
43298;BME280;28892;55.640;37.532;2024-01-25T08:21:18;97317.63;;;-0.18;70.10
43298;BME280;28892;55.640;37.532;2024-01-25T08:23:44;97292.88;;;-0.31;69.59
43298;BME280;28892;55.640;37.532;2024-01-25T08:26:10;97317.75;;;-0.45;70.04
43298;BME280;28892;55.640;37.532;2024-01-25T08:29:05;97281.84;;;-0.16;69.55
43298;BME280;28892;55.640;37.532;2024-01-25T08:31:31;97299.22;;;-0.41;69.29
43298;BME280;28892;55.640;37.532;2024-01-25T08:34:05;97312.03;;;-0.57;70.20
43298;BME280;28892;55.640;37.532;2024-01-25T08:36:43;97306.41;;;-0.19;69.98
43298;BME280;28892;55.640;37.532;2024-01-25T08:39:15;97297.94;;;-0.29;69.94
43298;BME280;28892;55.640;37.532;2024-01-25T08:42:04;97305.78;;;0.37;68.97
43298;BME280;28892;55.640;37.532;2024-01-25T08:44:34;97314.56;;;-0.13;68.05
43298;BME280;28892;55.640;37.532;2024-01-25T08:47:06;97295.06;;;-0.69;69.61
43298;BME280;28892;55.640;37.532;2024-01-25T08:49:32;97319.97;;;-0.58;70.20
43298;BME280;28892;55.640;37.532;2024-01-25T08:51:58;97316.88;;;-0.62;70.27
43298;BME280;28892;55.640;37.532;2024-01-25T09:01:19;97303.97;;;-0.20;68.71
43298;BME280;28892;55.640;37.532;2024-01-25T09:06:51;97303.81;;;-0.19;69.41
43298;BME280;28892;55.640;37.532;2024-01-25T09:09:38;97290.78;;;-0.10;69.47
43298;BME280;28892;55.640;37.532;2024-01-25T09:12:16;97305.47;;;0.24;68.69
43298;BME280;28892;55.640;37.532;2024-01-25T09:14:49;97312.63;;;0.55;68.15
43298;BME280;28892;55.640;37.532;2024-01-25T09:17:40;97309.38;;;0.03;67.68
43298;BME280;28892;55.640;37.532;2024-01-25T09:20:14;97300.41;;;-0.03;67.59
43298;BME280;28892;55.640;37.532;2024-01-25T09:22:42;97311.16;;;-0.14;67.95
43298;BME280;28892;55.640;37.532;2024-01-25T09:25:08;97306.41;;;-0.19;68.94
43298;BME280;28892;55.640;37.532;2024-01-25T09:27:34;97318.00;;;0.12;68.17
43298;BME280;28892;55.640;37.532;2024-01-25T09:30:00;97307.06;;;-0.17;68.85
43298;BME280;28892;55.640;37.532;2024-01-25T09:35:37;97319.75;;;-0.13;67.56
43298;BME280;28892;55.640;37.532;2024-01-25T09:39:03;97302.38;;;-0.05;68.56
43298;BME280;28892;55.640;37.532;2024-01-25T09:42:12;97284.13;;;0.29;67.53
43298;BME280;28892;55.640;37.532;2024-01-25T09:45:04;97303.47;;;-0.24;67.89
43298;BME280;28892;55.640;37.532;2024-01-25T09:47:56;97308.06;;;0.07;67.75
43298;BME280;28892;55.640;37.532;2024-01-25T09:50:28;97293.56;;;-0.12;67.53
43298;BME280;28892;55.640;37.532;2024-01-25T09:53:05;97301.72;;;0.10;67.87
43298;BME280;28892;55.640;37.532;2024-01-25T09:55:39;97295.69;;;0.26;67.04
43298;BME280;28892;55.640;37.532;2024-01-25T09:58:13;97294.88;;;0.34;66.80
43298;BME280;28892;55.640;37.532;2024-01-25T10:01:13;97290.94;;;0.63;66.59
43298;BME280;28892;55.640;37.532;2024-01-25T10:06:39;97285.03;;;0.69;65.99
43298;BME280;28892;55.640;37.532;2024-01-25T10:09:22;97291.69;;;0.80;65.26
43298;BME280;28892;55.640;37.532;2024-01-25T10:11:48;97284.75;;;0.14;67.24
43298;BME280;28892;55.640;37.532;2024-01-25T10:14:17;97284.59;;;-0.01;68.56
43298;BME280;28892;55.640;37.532;2024-01-25T10:16:44;97284.75;;;0.31;68.27
43298;BME280;28892;55.640;37.532;2024-01-25T10:19:16;97289.06;;;0.88;67.79
43298;BME280;28892;55.640;37.532;2024-01-25T10:21:49;97291.88;;;1.18;66.74
43298;BME280;28892;55.640;37.532;2024-01-25T10:24:19;97295.25;;;1.35;65.81
43298;BME280;28892;55.640;37.532;2024-01-25T10:26:48;97287.47;;;1.27;65.35
43298;BME280;28892;55.640;37.532;2024-01-25T10:29:16;97293.44;;;1.04;65.74
43298;BME280;28892;55.640;37.532;2024-01-25T10:32:02;97286.72;;;1.10;65.80
43298;BME280;28892;55.640;37.532;2024-01-25T10:34:37;97295.88;;;0.97;69.99
43298;BME280;28892;55.640;37.532;2024-01-25T10:37:23;97291.31;;;1.39;72.93
43298;BME280;28892;55.640;37.532;2024-01-25T10:40:00;97290.38;;;1.32;66.33
43298;BME280;28892;55.640;37.532;2024-01-25T10:42:34;97290.34;;;1.41;65.84
43298;BME280;28892;55.640;37.532;2024-01-25T10:45:08;97288.34;;;1.43;65.68
43298;BME280;28892;55.640;37.532;2024-01-25T10:47:55;97292.56;;;1.52;65.09
43298;BME280;28892;55.640;37.532;2024-01-25T10:50:28;97296.44;;;1.24;64.72
43298;BME280;28892;55.640;37.532;2024-01-25T10:53:01;97295.63;;;1.24;65.69
43298;BME280;28892;55.640;37.532;2024-01-25T10:55:36;97293.47;;;1.36;65.55
43298;BME280;28892;55.640;37.532;2024-01-25T10:58:12;97300.03;;;1.23;65.54
43298;BME280;28892;55.640;37.532;2024-01-25T11:00:51;97294.31;;;1.28;65.41
43298;BME280;28892;55.640;37.532;2024-01-25T11:03:34;97299.47;;;0.96;65.92
43298;BME280;28892;55.640;37.532;2024-01-25T11:06:06;97298.56;;;0.73;66.92
43298;BME280;28892;55.640;37.532;2024-01-25T11:08:37;97285.91;;;0.28;67.83
43298;BME280;28892;55.640;37.532;2024-01-25T11:11:08;97294.09;;;0.90;67.49
43298;BME280;28892;55.640;37.532;2024-01-25T11:13:38;97286.09;;;1.00;66.39
43298;BME280;28892;55.640;37.532;2024-01-25T11:16:15;97288.66;;;0.26;67.80
43298;BME280;28892;55.640;37.532;2024-01-25T11:18:53;97284.28;;;0.35;68.40
43298;BME280;28892;55.640;37.532;2024-01-25T11:21:25;97284.91;;;0.37;68.22
43298;BME280;28892;55.640;37.532;2024-01-25T11:23:58;97293.00;;;0.76;68.03
43298;BME280;28892;55.640;37.532;2024-01-25T11:26:27;97290.44;;;0.67;67.53
43298;BME280;28892;55.640;37.532;2024-01-25T11:29:02;97301.97;;;0.81;67.58
43298;BME280;28892;55.640;37.532;2024-01-25T11:31:54;97307.03;;;0.75;67.27
43298;BME280;28892;55.640;37.532;2024-01-25T11:34:57;97305.41;;;0.74;67.23
43298;BME280;28892;55.640;37.532;2024-01-25T11:37:28;97303.69;;;0.97;67.04
43298;BME280;28892;55.640;37.532;2024-01-25T11:39:59;97301.50;;;0.69;66.80
43298;BME280;28892;55.640;37.532;2024-01-25T11:45:36;97308.53;;;0.61;67.47
43298;BME280;28892;55.640;37.532;2024-01-25T11:52:29;97301.16;;;0.73;67.53
43298;BME280;28892;55.640;37.532;2024-01-25T11:56:02;97305.38;;;0.90;66.69
43298;BME280;28892;55.640;37.532;2024-01-25T12:21:47;97322.41;;;0.45;66.97
43298;BME280;28892;55.640;37.532;2024-01-25T12:24:13;97314.81;;;1.00;66.27
43298;BME280;28892;55.640;37.532;2024-01-25T12:26:46;97318.91;;;0.94;65.57
43298;BME280;28892;55.640;37.532;2024-01-25T12:29:13;97316.31;;;0.86;66.01
43298;BME280;28892;55.640;37.532;2024-01-25T12:42:52;97326.78;;;0.69;65.33
43298;BME280;28892;55.640;37.532;2024-01-25T12:45:24;97329.88;;;0.81;66.47
43298;BME280;28892;55.640;37.532;2024-01-25T12:47:52;97322.03;;;0.89;65.34
43298;BME280;28892;55.640;37.532;2024-01-25T12:50:18;97326.16;;;1.23;65.17
43298;BME280;28892;55.640;37.532;2024-01-25T12:52:45;97333.72;;;1.10;64.78
43298;BME280;28892;55.640;37.532;2024-01-25T12:55:14;97325.81;;;1.27;64.94
43298;BME280;28892;55.640;37.532;2024-01-25T12:57:42;97324.03;;;0.37;68.96
43298;BME280;28892;55.640;37.532;2024-01-25T13:00:10;97326.00;;;0.44;71.35
43298;BME280;28892;55.640;37.532;2024-01-25T13:02:40;97323.88;;;0.55;67.98
43298;BME280;28892;55.640;37.532;2024-01-25T13:05:27;97324.91;;;1.03;66.38
43298;BME280;28892;55.640;37.532;2024-01-25T13:08:01;97338.84;;;1.35;65.10
43298;BME280;28892;55.640;37.532;2024-01-25T13:10:37;97331.97;;;1.42;64.61
43298;BME280;28892;55.640;37.532;2024-01-25T13:16:15;97337.09;;;0.46;67.46
43298;BME280;28892;55.640;37.532;2024-01-25T13:19:11;97342.63;;;0.43;68.11
43298;BME280;28892;55.640;37.532;2024-01-25T13:25:02;97344.19;;;0.85;66.85
43298;BME280;28892;55.640;37.532;2024-01-25T13:27:49;97343.41;;;0.93;66.49
43298;BME280;28892;55.640;37.532;2024-01-25T13:33:31;97351.41;;;0.75;67.64
43298;BME280;28892;55.640;37.532;2024-01-25T13:36:07;97349.41;;;1.02;67.12
43298;BME280;28892;55.640;37.532;2024-01-25T13:53:03;97357.19;;;1.18;65.04
43298;BME280;28892;55.640;37.532;2024-01-25T13:55:39;97363.34;;;0.52;66.96
43298;BME280;28892;55.640;37.532;2024-01-25T14:09:21;97367.59;;;1.27;65.19
43298;BME280;28892;55.640;37.532;2024-01-25T14:16:30;97370.91;;;1.20;65.51
43298;BME280;28892;55.640;37.532;2024-01-25T14:27:19;97360.50;;;0.95;66.29
43298;BME280;28892;55.640;37.532;2024-01-25T14:30:02;97370.09;;;1.11;65.74
43298;BME280;28892;55.640;37.532;2024-01-25T14:33:07;97371.28;;;0.76;66.93
43298;BME280;28892;55.640;37.532;2024-01-25T14:36:23;97370.66;;;0.74;66.97
43298;BME280;28892;55.640;37.532;2024-01-25T14:38:51;97372.97;;;0.44;67.75
43298;BME280;28892;55.640;37.532;2024-01-25T14:41:43;97378.16;;;0.60;68.00
43298;BME280;28892;55.640;37.532;2024-01-25T14:47:41;97382.41;;;0.53;67.35
43298;BME280;28892;55.640;37.532;2024-01-25T14:53:48;97385.34;;;0.58;68.16
43298;BME280;28892;55.640;37.532;2024-01-25T14:56:23;97382.09;;;0.48;68.46
43298;BME280;28892;55.640;37.532;2024-01-25T14:58:58;97380.44;;;0.30;68.18
43298;BME280;28892;55.640;37.532;2024-01-25T15:01:24;97383.03;;;0.30;69.10
43298;BME280;28892;55.640;37.532;2024-01-25T15:07:40;97396.75;;;0.82;67.72
43298;BME280;28892;55.640;37.532;2024-01-25T15:10:10;97405.88;;;0.94;66.76
43298;BME280;28892;55.640;37.532;2024-01-25T15:12:40;97399.03;;;0.27;67.75
43298;BME280;28892;55.640;37.532;2024-01-25T15:19:03;97414.38;;;0.88;66.43
43298;BME280;28892;55.640;37.532;2024-01-25T15:37:26;97430.38;;;0.68;66.70
43298;BME280;28892;55.640;37.532;2024-01-25T15:40:26;97430.34;;;0.52;67.93
43298;BME280;28892;55.640;37.532;2024-01-25T15:43:02;97426.22;;;0.08;68.53
43298;BME280;28892;55.640;37.532;2024-01-25T15:45:34;97426.28;;;0.41;68.74
43298;BME280;28892;55.640;37.532;2024-01-25T16:04:49;97437.84;;;0.63;68.14
43298;BME280;28892;55.640;37.532;2024-01-25T16:08:36;97437.38;;;0.76;67.61
43298;BME280;28892;55.640;37.532;2024-01-25T16:23:23;97457.44;;;0.59;66.82
43298;BME280;28892;55.640;37.532;2024-01-25T18:34:24;97511.06;;;0.53;67.03
43298;BME280;28892;55.640;37.532;2024-01-25T18:37:23;97517.09;;;0.54;66.58
43298;BME280;28892;55.640;37.532;2024-01-25T18:40:00;97516.25;;;0.45;67.14
43298;BME280;28892;55.640;37.532;2024-01-25T18:43:01;97527.00;;;0.34;67.50
43298;BME280;28892;55.640;37.532;2024-01-25T18:45:56;97530.09;;;0.37;67.76
43298;BME280;28892;55.640;37.532;2024-01-25T18:48:45;97521.66;;;0.52;67.36